createdAt,value
2019-02-07T00:02:28.623Z,100311.05
2019-02-07T00:04:59.251Z,100310.22
2019-02-07T00:07:29.953Z,100309.78
2019-02-07T00:10:00.840Z,100309.92
2019-02-07T00:12:31.737Z,100301.11
2019-02-07T00:15:03.645Z,100298.69
2019-02-07T00:17:34.310Z,100294.26
2019-02-07T00:20:06.068Z,100302.19
2019-02-07T00:22:39.408Z,100291.16
2019-02-07T00:25:10.455Z,100292.62
2019-02-07T00:27:40.887Z,100287.56
2019-02-07T00:30:15.367Z,100281.91
2019-02-07T00:32:47.929Z,100286.91
2019-02-07T00:35:18.928Z,100284.41
2019-02-07T00:37:49.915Z,100275.81
2019-02-07T00:40:21.045Z,100277.59
2019-02-07T00:42:52.020Z,100267.12
2019-02-07T00:45:22.896Z,100260.80
2019-02-07T00:47:54.039Z,100261.88
2019-02-07T00:50:24.978Z,100257.22
2019-02-07T00:52:55.936Z,100264.89
2019-02-07T00:55:28.103Z,100256.51
2019-02-07T00:57:59.034Z,100261.88
2019-02-07T01:00:32.087Z,100258.59
2019-02-07T01:03:03.029Z,100255.39
2019-02-07T01:05:33.468Z,100250.87
2019-02-07T01:08:04.298Z,100247.23
2019-02-07T01:10:38.625Z,100247.52
2019-02-07T01:13:09.215Z,100242.40
2019-02-07T01:15:40.081Z,100238.66
2019-02-07T01:18:13.167Z,100228.41
2019-02-07T01:20:45.162Z,100226.77
2019-02-07T01:23:16.094Z,100226.75
2019-02-07T01:25:47.012Z,100218.77
2019-02-07T01:28:18.176Z,100216.44
2019-02-07T01:30:49.092Z,100211.20
2019-02-07T01:33:20.436Z,100208.61
2019-02-07T01:35:51.192Z,100207.75
2019-02-07T01:38:22.178Z,100207.05
2019-02-07T01:40:53.356Z,100197.84
2019-02-07T01:43:24.211Z,100196.77
2019-02-07T01:45:55.149Z,100190.75
2019-02-07T01:48:26.228Z,100191.23
2019-02-07T01:50:57.102Z,100191.06
2019-02-07T01:53:28.267Z,100184.45
2019-02-07T01:55:59.191Z,100180.16
2019-02-07T01:58:30.957Z,100174.88
2019-02-07T02:01:03.353Z,100176.28
2019-02-07T02:03:33.832Z,100179.39
2019-02-07T02:06:05.497Z,100175.05
2019-02-07T02:08:37.318Z,100169.72
2019-02-07T02:11:10.315Z,100167.02
2019-02-07T02:13:43.273Z,100156.31
2019-02-07T02:16:15.438Z,100153.11
2019-02-07T02:18:46.400Z,100149.26
2019-02-07T02:21:17.306Z,100147.17
2019-02-07T02:23:48.490Z,100149.04
2019-02-07T02:26:19.374Z,100133.36
2019-02-07T02:28:50.335Z,100133.08
2019-02-07T02:31:21.448Z,100128.69
2019-02-07T02:33:53.488Z,100130.16
2019-02-07T02:36:27.189Z,100129.02
2019-02-07T02:38:57.581Z,100121.84
2019-02-07T02:41:28.194Z,100121.45
2019-02-07T02:43:58.621Z,100114.34
2019-02-07T02:46:29.575Z,100108.41
2019-02-07T02:49:00.496Z,100099.13
2019-02-07T02:51:32.210Z,100100.22
2019-02-07T02:54:03.740Z,100095.86
2019-02-07T02:56:34.133Z,100090.77
2019-02-07T02:59:04.540Z,100087.02
2019-02-07T03:02:00.608Z,100088.41
2019-02-07T03:04:50.842Z,100081.71
2019-02-07T03:07:43.101Z,100081.55
2019-02-07T03:10:44.347Z,100077.32
2019-02-07T03:13:35.449Z,100068.97
2019-02-07T03:16:28.915Z,100060.00
2019-02-07T03:19:11.055Z,100055.55
2019-02-07T03:22:00.571Z,100056.16
2019-02-07T03:25:03.853Z,100058.43
2019-02-07T03:27:59.336Z,100055.67
2019-02-07T03:30:47.477Z,100048.98
2019-02-07T03:33:42.532Z,100049.34
2019-02-07T03:36:37.534Z,100047.45
2019-02-07T03:39:40.337Z,100048.87
2019-02-07T03:42:27.473Z,100039.48
2019-02-07T03:45:12.048Z,100040.50
2019-02-07T03:48:11.741Z,100035.73
2019-02-07T03:51:05.493Z,100033.40
2019-02-07T03:53:55.696Z,100025.22
2019-02-07T03:56:45.436Z,100024.69
2019-02-07T03:59:24.821Z,100014.42
2019-02-07T04:02:12.987Z,100019.31
2019-02-07T04:05:02.801Z,100013.33
2019-02-07T04:07:52.743Z,100008.04
2019-02-07T04:10:49.469Z,99997.88
2019-02-07T04:13:39.685Z,99991.00
2019-02-07T04:16:18.129Z,99988.28
2019-02-07T04:19:20.615Z,99982.73
2019-02-07T04:22:21.923Z,99978.97
2019-02-07T04:25:09.664Z,99969.09
2019-02-07T04:27:58.120Z,99967.59
2019-02-07T04:30:55.463Z,99972.26
2019-02-07T04:33:36.124Z,99965.25
2019-02-07T04:36:23.815Z,99962.13
2019-02-07T04:39:16.341Z,99960.47
2019-02-07T04:42:05.978Z,99948.29
2019-02-07T04:44:51.332Z,99947.87
2019-02-07T04:47:43.865Z,99942.55
2019-02-07T04:50:41.414Z,99935.43
2019-02-07T04:53:33.885Z,99929.86
2019-02-07T04:56:21.770Z,99925.05
2019-02-07T04:59:17.730Z,99929.61
2019-02-07T05:02:05.283Z,99925.00
2019-02-07T05:04:58.681Z,99921.25
2019-02-07T05:07:47.960Z,99926.95
2019-02-07T05:10:39.958Z,99917.33
2019-02-07T05:13:29.473Z,99903.77
2019-02-07T05:16:13.656Z,99900.02
2019-02-07T05:19:05.094Z,99899.63
2019-02-07T05:22:02.040Z,99895.63
2019-02-07T05:24:58.237Z,99899.63
2019-02-07T05:27:40.469Z,99892.31
2019-02-07T05:30:34.195Z,99897.98
2019-02-07T05:33:34.310Z,99894.95
2019-02-07T05:36:23.134Z,99886.20
2019-02-07T05:39:28.389Z,99885.28
2019-02-07T05:42:16.014Z,99891.20
2019-02-07T05:45:09.311Z,99899.52
2019-02-07T05:48:02.899Z,99897.13
2019-02-07T05:51:01.706Z,99890.68
2019-02-07T05:53:52.990Z,99891.70
2019-02-07T05:56:42.715Z,99880.78
2019-02-07T05:59:44.849Z,99882.76
2019-02-07T06:02:36.740Z,99884.50
2019-02-07T06:05:29.290Z,99881.67
2019-02-07T06:08:23.779Z,99884.89
2019-02-07T06:11:11.916Z,99877.69
2019-02-07T06:14:00.962Z,99889.03
2019-02-07T06:16:49.843Z,99882.73
2019-02-07T06:19:40.205Z,99885.31
2019-02-07T06:22:20.266Z,99880.53
2019-02-07T06:25:03.129Z,99881.25
2019-02-07T06:27:58.503Z,99875.10
2019-02-07T06:30:48.966Z,99874.77
2019-02-07T06:33:41.971Z,99874.14
2019-02-07T06:36:28.502Z,99877.72
2019-02-07T06:39:14.419Z,99885.55
2019-02-07T06:42:02.681Z,99887.97
2019-02-07T06:44:52.759Z,99890.95
2019-02-07T06:47:50.130Z,99888.67
2019-02-07T06:50:38.092Z,99883.91
2019-02-07T06:53:43.437Z,99885.29
2019-02-07T06:56:47.650Z,99879.97
2019-02-07T06:59:31.902Z,99889.38
2019-02-07T07:02:20.770Z,99878.45
2019-02-07T07:05:11.982Z,99876.55
2019-02-07T07:08:01.521Z,99876.64
2019-02-07T07:10:55.101Z,99876.12
2019-02-07T07:13:39.744Z,99877.81
2019-02-07T07:16:31.542Z,99874.64
2019-02-07T07:19:14.250Z,99876.02
2019-02-07T07:22:18.385Z,99869.31
2019-02-07T07:25:19.584Z,99868.53
2019-02-07T07:28:14.472Z,99868.67
2019-02-07T07:31:08.371Z,99868.68
2019-02-07T07:34:01.562Z,99866.58
2019-02-07T07:36:49.166Z,99862.49
2019-02-07T07:39:37.934Z,99863.61
2019-02-07T07:42:28.110Z,99868.22
2019-02-07T07:45:17.623Z,99864.56
2019-02-07T07:48:12.094Z,99857.01
2019-02-07T07:51:02.619Z,99857.05
2019-02-07T07:54:09.885Z,99862.83
2019-02-07T07:57:05.737Z,99854.38
2019-02-07T07:59:55.227Z,99854.93
2019-02-07T08:03:02.790Z,99862.40
2019-02-07T08:06:07.594Z,99861.86
2019-02-07T08:08:50.186Z,99865.34
2019-02-07T08:11:38.284Z,99857.91
2019-02-07T08:14:21.689Z,99847.15
2019-02-07T08:17:11.880Z,99859.45
2019-02-07T08:20:22.867Z,99849.63
2019-02-07T08:23:09.897Z,99852.09
2019-02-07T08:25:58.380Z,99850.27
2019-02-07T08:29:03.801Z,99856.63
2019-02-07T08:31:53.098Z,99859.23
2019-02-07T08:34:59.947Z,99863.00
2019-02-07T08:37:58.151Z,99857.60
2019-02-07T08:40:40.103Z,99854.47
2019-02-07T08:43:39.123Z,99854.09
2019-02-07T08:46:37.841Z,99853.53
2019-02-07T08:49:27.234Z,99859.28
2019-02-07T08:52:17.372Z,99852.23
2019-02-07T08:55:13.865Z,99849.42
2019-02-07T08:58:03.188Z,99854.28
2019-02-07T09:00:48.891Z,99850.54
2019-02-07T09:03:39.495Z,99851.21
2019-02-07T09:06:30.136Z,99850.00
2019-02-07T09:09:22.221Z,99849.61
2019-02-07T09:12:12.003Z,99852.77
2019-02-07T09:15:03.120Z,99856.45
2019-02-07T09:17:56.150Z,99851.05
2019-02-07T09:20:33.129Z,99838.86
2019-02-07T09:23:38.805Z,99847.97
2019-02-07T09:26:29.728Z,99851.28
2019-02-07T09:29:18.946Z,99847.66
2019-02-07T09:32:08.705Z,99853.00
2019-02-07T09:35:11.265Z,99856.17
2019-02-07T09:38:01.764Z,99855.69
2019-02-07T09:40:52.235Z,99858.27
2019-02-07T09:43:42.764Z,99850.05
2019-02-07T09:46:33.128Z,99851.52
2019-02-07T09:49:23.362Z,99846.84
2019-02-07T09:52:13.051Z,99839.02
2019-02-07T09:55:02.809Z,99840.53
2019-02-07T09:57:50.694Z,99840.29
2019-02-07T10:00:45.434Z,99837.14
2019-02-07T10:03:33.629Z,99832.96
2019-02-07T10:06:23.517Z,99842.07
2019-02-07T10:09:21.042Z,99839.59
2019-02-07T10:12:18.988Z,99837.20
2019-02-07T10:15:09.375Z,99837.20
2019-02-07T10:18:18.213Z,99830.27
2019-02-07T10:21:06.173Z,99830.27
2019-02-07T10:24:02.033Z,99818.47
2019-02-07T10:26:50.877Z,99816.86
2019-02-07T10:29:43.098Z,99810.24
2019-02-07T10:32:38.403Z,99806.03
2019-02-07T10:35:26.645Z,99791.97
2019-02-07T10:38:15.589Z,99789.59
2019-02-07T10:41:06.529Z,99785.40
2019-02-07T10:44:11.694Z,99767.67
2019-02-07T10:47:03.372Z,99767.67
2019-02-07T10:49:59.267Z,99779.12
2019-02-07T10:52:52.426Z,99765.69
2019-02-07T10:56:00.637Z,99750.54
2019-02-07T10:59:08.106Z,99750.54
2019-02-07T11:02:05.101Z,99753.72
2019-02-07T11:04:56.681Z,99753.80
2019-02-07T11:07:48.503Z,99746.77
2019-02-07T11:10:37.295Z,99742.96
2019-02-07T11:13:30.347Z,99747.95
2019-02-07T11:16:23.189Z,99743.75
2019-02-07T11:19:21.486Z,99731.70
2019-02-07T11:22:09.304Z,99719.95
2019-02-07T11:24:58.240Z,99721.75
2019-02-07T11:27:46.067Z,99731.90
2019-02-07T11:30:40.266Z,99723.88
2019-02-07T11:33:49.831Z,99689.70
2019-02-07T11:36:42.068Z,99716.06
2019-02-07T11:39:33.846Z,99707.66
2019-02-07T11:42:23.284Z,99706.05
2019-02-07T11:45:18.664Z,99695.48
2019-02-07T11:48:12.655Z,99689.66
2019-02-07T11:50:56.641Z,99687.51
2019-02-07T11:53:47.573Z,99683.77
2019-02-07T11:56:29.059Z,99683.40
2019-02-07T11:59:20.859Z,99682.60
2019-02-07T12:02:30.942Z,99667.83
2019-02-07T12:05:20.494Z,99669.58
2019-02-07T12:08:10.349Z,99663.27
2019-02-07T12:11:17.622Z,99663.77
2019-02-07T12:14:11.232Z,99655.33
2019-02-07T12:17:03.096Z,99658.77
2019-02-07T12:19:51.883Z,99653.32
2019-02-07T12:22:47.609Z,99657.58
2019-02-07T12:25:40.011Z,99647.43
2019-02-07T12:28:26.222Z,99641.92
2019-02-07T12:31:24.173Z,99636.84
2019-02-07T12:34:05.367Z,99636.42
2019-02-07T12:36:59.967Z,99639.83
2019-02-07T12:40:08.816Z,99629.64
2019-02-07T12:42:57.988Z,99627.55
2019-02-07T12:45:58.956Z,99622.89
2019-02-07T12:48:52.593Z,99623.73
2019-02-07T12:51:43.255Z,99615.69
2019-02-07T12:54:53.124Z,99603.38
2019-02-07T12:57:36.603Z,99605.92
2019-02-07T13:00:38.247Z,99607.19
2019-02-07T13:03:36.045Z,99604.66
2019-02-07T13:06:34.781Z,99613.54
2019-02-07T13:09:27.878Z,99614.39
2019-02-07T13:12:09.256Z,99621.16
2019-02-07T13:15:00.478Z,99621.59
2019-02-07T13:17:46.577Z,99613.95
2019-02-07T13:20:34.748Z,99611.86
2019-02-07T13:23:33.493Z,99607.59
2019-02-07T13:26:25.968Z,99609.68
2019-02-07T13:29:13.953Z,99607.95
2019-02-07T13:31:54.104Z,99607.95
2019-02-07T13:34:42.621Z,99605.82
2019-02-07T13:37:45.260Z,99599.89
2019-02-07T13:40:49.503Z,99598.20
2019-02-07T13:43:44.709Z,99595.58
2019-02-07T13:46:24.795Z,99594.67
2019-02-07T13:49:20.068Z,99591.31
2019-02-07T13:52:28.261Z,99586.64
2019-02-07T13:55:17.497Z,99592.16
2019-02-07T13:58:09.581Z,99588.80
2019-02-07T14:00:53.870Z,99590.06
2019-02-07T14:03:35.135Z,99592.97
2019-02-07T14:06:32.443Z,99599.36
2019-02-07T14:09:39.839Z,99601.47
2019-02-07T14:12:29.623Z,99602.72
2019-02-07T14:15:21.374Z,99596.80
2019-02-07T14:18:30.229Z,99600.98
2019-02-07T14:21:23.090Z,99594.19
2019-02-07T14:24:15.195Z,99589.39
2019-02-07T14:26:56.585Z,99589.43
2019-02-07T14:29:47.546Z,99590.02
2019-02-07T14:32:39.877Z,99591.46
2019-02-07T14:35:29.943Z,99582.42
2019-02-07T14:38:17.411Z,99583.65
2019-02-07T14:41:12.542Z,99580.72
2019-02-07T14:44:07.290Z,99579.77
2019-02-07T14:46:48.732Z,99578.80
2019-02-07T14:49:20.676Z,99579.89
2019-02-07T14:51:51.805Z,99575.30
2019-02-07T14:54:22.708Z,99570.22
2019-02-07T14:56:53.707Z,99568.13
2019-02-07T14:59:24.877Z,99569.71
2019-02-07T15:01:55.709Z,99575.42
2019-02-07T15:04:26.855Z,99569.05
2019-02-07T15:06:57.903Z,99564.89
2019-02-07T15:09:28.780Z,99568.92
2019-02-07T15:11:59.848Z,99571.96
2019-02-07T15:14:32.862Z,99567.37
2019-02-07T15:17:03.248Z,99564.86
2019-02-07T15:19:34.673Z,99572.20
2019-02-07T15:22:05.984Z,99570.18
2019-02-07T15:24:37.767Z,99568.95
2019-02-07T15:27:10.937Z,99570.73
2019-02-07T15:29:42.787Z,99567.77
2019-02-07T15:32:15.783Z,99566.07
2019-02-07T15:34:46.929Z,99567.73
2019-02-07T15:37:17.910Z,99571.93
2019-02-07T15:39:49.026Z,99572.25
2019-02-07T15:42:20.106Z,99573.84
2019-02-07T15:44:52.938Z,99570.78
2019-02-07T15:47:23.865Z,99572.39
2019-02-07T15:49:54.946Z,99573.05
2019-02-07T15:52:26.406Z,99572.05
2019-02-07T15:54:57.059Z,99568.98
2019-02-07T15:57:27.929Z,99571.41
2019-02-07T16:00:01.927Z,99573.82
2019-02-07T16:02:45.473Z,99569.01
2019-02-07T16:05:15.877Z,99570.07
2019-02-07T16:07:46.665Z,99569.96
2019-02-07T16:10:18.085Z,99571.56
2019-02-07T16:12:48.499Z,99563.62
2019-02-07T16:15:19.518Z,99563.62
2019-02-07T16:17:49.982Z,99566.34
2019-02-07T16:20:21.309Z,99566.34
2019-02-07T16:22:52.192Z,99572.81
2019-02-07T16:25:23.236Z,99572.22
2019-02-07T16:27:53.947Z,99572.22
2019-02-07T16:30:24.736Z,99573.39
2019-02-07T16:32:55.185Z,99578.40
2019-02-07T16:35:26.946Z,99574.00
2019-02-07T16:37:57.786Z,99574.00
2019-02-07T16:40:28.380Z,99575.97
2019-02-07T16:42:59.490Z,99576.83
2019-02-07T16:45:30.258Z,99576.53
2019-02-07T16:48:01.333Z,99575.72
2019-02-07T16:50:31.805Z,99572.13
2019-02-07T16:53:02.280Z,99572.13
2019-02-07T16:55:33.274Z,99580.06
2019-02-07T16:58:05.206Z,99582.78
2019-02-07T17:00:35.867Z,99582.78
2019-02-07T17:03:07.086Z,99587.02
2019-02-07T17:05:38.165Z,99585.58
2019-02-07T17:08:08.810Z,99588.42
2019-02-07T17:10:40.071Z,99593.41
2019-02-07T17:13:11.084Z,99586.64
2019-02-07T17:15:41.893Z,99590.70
2019-02-07T17:18:12.360Z,99594.78
2019-02-07T17:20:43.887Z,99596.64
2019-02-07T17:23:14.444Z,99596.01
2019-02-07T17:25:45.902Z,99591.11
2019-02-07T17:28:16.838Z,99599.45
2019-02-07T17:30:47.446Z,99600.27
2019-02-07T17:33:18.487Z,99602.07
2019-02-07T17:35:50.317Z,99606.64
2019-02-07T17:38:22.386Z,99606.12
2019-02-07T17:40:54.494Z,99608.31
2019-02-07T17:43:25.452Z,99602.40
2019-02-07T17:45:56.572Z,99596.14
2019-02-07T17:48:27.448Z,99598.48
2019-02-07T17:50:58.683Z,99604.31
2019-02-07T17:53:29.777Z,99612.22
2019-02-07T17:56:00.439Z,99595.28
2019-02-07T17:58:30.898Z,99599.94
2019-02-07T18:01:06.863Z,99598.73
2019-02-07T18:03:38.626Z,99597.99
2019-02-07T18:06:11.075Z,99595.14
2019-02-07T18:08:43.659Z,99597.72
2019-02-07T18:11:15.617Z,99596.61
2019-02-07T18:13:47.824Z,99598.22
2019-02-07T18:16:21.169Z,99601.59
2019-02-07T18:18:53.619Z,99607.30
2019-02-07T18:21:33.976Z,99603.06
2019-02-07T18:23:58.752Z,99598.89
2019-02-07T18:26:29.812Z,99602.83
2019-02-07T18:29:00.558Z,99598.88
2019-02-07T18:31:32.897Z,99603.50
2019-02-07T18:34:05.884Z,99601.66
2019-02-07T18:36:38.663Z,99605.65
2019-02-07T18:39:11.011Z,99606.64
2019-02-07T18:41:41.898Z,99607.95
2019-02-07T18:44:12.759Z,99606.77
2019-02-07T18:46:44.820Z,99612.89
2019-02-07T18:49:17.724Z,99613.34
2019-02-07T18:51:48.815Z,99615.27
2019-02-07T18:54:19.895Z,99611.61
2019-02-07T18:56:50.659Z,99616.86
2019-02-07T18:59:26.682Z,99619.33
2019-02-07T19:01:58.866Z,99622.22
2019-02-07T19:04:29.901Z,99630.44
2019-02-07T19:07:02.909Z,99627.66
2019-02-07T19:09:33.810Z,99626.73
2019-02-07T19:12:05.924Z,99629.23
2019-02-07T19:14:38.781Z,99629.91
2019-02-07T19:17:09.888Z,99634.93
2019-02-07T19:19:41.977Z,99633.13
2019-02-07T19:22:16.524Z,99644.80
2019-02-07T19:24:46.889Z,99637.73
2019-02-07T19:27:17.320Z,99637.91
2019-02-07T19:29:48.413Z,99638.11
2019-02-07T19:32:18.949Z,99633.50
2019-02-07T19:34:50.203Z,99635.55
2019-02-07T19:37:21.311Z,99644.25
2019-02-07T19:39:52.197Z,99637.93
2019-02-07T19:42:23.002Z,99636.06
2019-02-07T19:44:54.165Z,99634.33
2019-02-07T19:47:25.058Z,99639.44
2019-02-07T19:49:56.125Z,99640.55
2019-02-07T19:52:27.101Z,99642.59
2019-02-07T19:54:58.080Z,99655.22
2019-02-07T19:57:29.114Z,99658.74
2019-02-07T20:00:00.207Z,99660.84
2019-02-07T20:02:31.149Z,99658.72
2019-02-07T20:05:02.071Z,99656.47
2019-02-07T20:07:33.252Z,99655.05
2019-02-07T20:10:05.389Z,99658.32
2019-02-07T20:12:35.861Z,99655.97
2019-02-07T20:15:13.817Z,99659.22
2019-02-07T20:17:46.419Z,99660.76
2019-02-07T20:20:17.493Z,99659.45
2019-02-07T20:22:48.635Z,99663.60
2019-02-07T20:25:19.143Z,99668.95
2019-02-07T20:27:50.218Z,99663.38
2019-02-07T20:30:26.416Z,99664.94
2019-02-07T20:32:58.022Z,99660.61
2019-02-07T20:35:29.131Z,99667.59
2019-02-07T20:37:59.980Z,99668.25
2019-02-07T20:40:31.249Z,99666.80
2019-02-07T20:43:02.027Z,99671.67
2019-02-07T20:45:32.922Z,99675.31
2019-02-07T20:48:03.972Z,99676.06
2019-02-07T20:50:36.362Z,99668.83
2019-02-07T20:53:08.383Z,99673.37
2019-02-07T20:55:39.518Z,99672.41
2019-02-07T20:58:10.468Z,99671.58
2019-02-07T21:00:41.250Z,99666.12
2019-02-07T21:03:12.441Z,99670.23
2019-02-07T21:05:43.330Z,99675.09
2019-02-07T21:08:14.407Z,99685.19
2019-02-07T21:10:45.389Z,99684.47
2019-02-07T21:13:16.362Z,99689.23
2019-02-07T21:15:47.493Z,99687.80
2019-02-07T21:18:18.435Z,99688.59
2019-02-07T21:20:49.390Z,99693.88
2019-02-07T21:23:20.587Z,99692.97
2019-02-07T21:25:53.599Z,99690.98
2019-02-07T21:28:25.436Z,99698.46
2019-02-07T21:30:56.429Z,99700.52
2019-02-07T21:33:27.711Z,99702.48
2019-02-07T21:35:58.479Z,99706.98
2019-02-07T21:38:29.581Z,99702.72
2019-02-07T21:41:02.523Z,99712.02
2019-02-07T21:43:34.535Z,99711.30
2019-02-07T21:46:05.617Z,99716.99
2019-02-07T21:48:36.090Z,99714.33
2019-02-07T21:51:06.710Z,99720.30
2019-02-07T21:53:37.650Z,99718.36
2019-02-07T21:56:09.476Z,99721.23
2019-02-07T21:58:41.695Z,99721.73
2019-02-07T22:01:13.644Z,99719.81
2019-02-07T22:03:44.549Z,99723.92
2019-02-07T22:06:15.768Z,99726.14
2019-02-07T22:08:47.652Z,99726.94
2019-02-07T22:11:20.664Z,99724.00
2019-02-07T22:13:51.723Z,99722.35
2019-02-07T22:16:22.653Z,99716.92
2019-02-07T22:18:55.191Z,99721.95
2019-02-07T22:21:27.601Z,99724.30
2019-02-07T22:23:59.017Z,99722.23
2019-02-07T22:26:29.810Z,99721.92
2019-02-07T22:29:00.727Z,99716.41
2019-02-07T22:31:31.790Z,99722.19
2019-02-07T22:34:02.686Z,99719.86
2019-02-07T22:36:33.872Z,99722.00
2019-02-07T22:39:06.958Z,99724.92
2019-02-07T22:41:38.769Z,99724.92
2019-02-07T22:44:09.899Z,99725.39
2019-02-07T22:46:41.927Z,99720.77
2019-02-07T22:49:13.877Z,99722.02
2019-02-07T22:51:44.949Z,99731.03
2019-02-07T22:54:15.906Z,99731.77
2019-02-07T22:56:47.272Z,99744.44
2019-02-07T22:59:18.831Z,99733.44
2019-02-07T23:01:56.791Z,99731.27
2019-02-07T23:04:29.437Z,99733.72
2019-02-07T23:06:59.929Z,99739.56
2019-02-07T23:09:31.210Z,99728.20
2019-02-07T23:12:02.028Z,99735.30
2019-02-07T23:14:33.036Z,99736.69
2019-02-07T23:17:03.846Z,99733.98
2019-02-07T23:19:35.072Z,99738.31
2019-02-07T23:22:06.428Z,99738.31
2019-02-07T23:24:39.005Z,99744.82
2019-02-07T23:27:11.088Z,99743.20
2019-02-07T23:29:41.937Z,99745.90
2019-02-07T23:32:12.950Z,99747.08
2019-02-07T23:34:45.942Z,99745.73
2019-02-07T23:37:17.077Z,99745.61
2019-02-07T23:39:48.107Z,99745.34
2019-02-07T23:42:19.036Z,99739.52
2019-02-07T23:44:49.998Z,99745.30
2019-02-07T23:47:21.969Z,99745.73
2019-02-07T23:49:55.066Z,99745.41
2019-02-07T23:52:26.069Z,99748.42
2019-02-07T23:54:57.134Z,99751.58
2019-02-07T23:57:28.104Z,99744.89
